My Meet Scores
Makenna Rutten, Aspire Gymnastics Academy - MyMeetScores.com
Top100 | Top Teams | Upcoming Meets | Completed Meets | Latest | Add Scores | Help| Support | Bookmark and Share

Makenna Rutten, Aspire Gymnastics Academy
Personal Bests
LevelVault BarsBeamFloorAA
39.6009.450 9.6009.42537.475
49.1509.175 9.4009.25036.525
59.2008.875 9.3009.02535.675
Meet Scores
Date Meet Team Session Level Division Vault Bars Beam Floor AA
2020-02-21 Great Western Invitational - Women's Aspire Gymnastics Academy 02 5 Filly 9.200 6 8.875 12 8.400 13 0.000 17T 26.475 17
2020-02-14 Big Classic Aspire Gymnastics Academy 1A 5 Child C 0.000 81T 8.100 73T 8.350 61T 0.000 81T 16.450 80
2020-01-24 Uga Invitational Aspire Gymnastics Academy B1 5 Ch A 8.925 10 8.550 7 9.300 7T 8.900 13 35.675 7
2020-01-17 2020 Bravo Classic Aspire Gymnastics Academy 4A 5 Child 9.150 20T 8.400 22 8.450 18T 8.850 21 34.850 21
2019-12-20 Aspire Classic - 2019 Aspire Gymnastics Academy 3A 5 Younger 9.050 13T 8.300 19 9.025 15 9.025 8T 35.400 16T
2019-03-22 Illinois Gymnastics State Championships Aspire Gymnastics Academy 6 4 YT A 8.675 21T 9.175 15 9.400 6T 9.250 9T 36.500 14
2019-03-08 Lucky Invite Aspire Gymnastics Academy A09 4 Jr A 8.625 10 9.125 12 9.100 8 8.925 12 35.775 9
2019-02-23 Kinetic Classic 2019 Aspire Gymnastics Academy 1 4 Younger 8.650 19T 8.300 35 9.125 12 8.775 27 34.850 25T
2019-02-15 Big ClassicBIG CLASSIC Aspire Gymnastics Academy 5A 4 Child B 8.925 7 8.650 10 9.250 3 9.100 4 35.925 5
2019-01-25 UGA Invitational Aspire Gymnastics Academy B06 4 Ch B 8.875 8 9.100 8T 9.350 4 8.850 8 36.175 6
2019-01-18 2019 Bravo Classic Aspire Gymnastics Academy 3B 4 Child 9.150 10T 9.100 8 9.125 4 9.150 9 36.525 5T
2018-12-14 2018 Aspire Classic Aspire Gymnastics Academy 5A 4 Younger 8.750 14T 8.850 11 9.175 8 9.100 13 35.875 10
2018-12-07 St. Nick Invite 2018 Aspire Gymnastics Academy 6A 4 JrA 9.000 4 8.125 8T 8.450 10 9.150 3 34.725 6
2018-11-17 Paul Hamm Thanksgiving Class WOMENS Aspire Gymnastics Academy 6 4 Younger 9.000 9T 8.325 23 9.075 8 8.850 19 35.250 15
2018-05-03 Illinois USA Gymnastics Level 3 State Championships Aspire Gymnastics Academy 4 3 Youth B 9.400 22 9.450 6T 9.200 4 9.425 5T 37.475 6
2018-02-16 Big Classic Aspire Gymnastics Academy 1B 3 Child A 9.150 5T 9.250 7 9.050 7 9.375 5 36.825 6
2018-01-26 2018 UGA Classic Aspire Gymnastics Academy A8 3 Jr B 9.450 3 9.200 8 9.600 4 9.200 7T 37.450 4
2018-01-19 2018 Bravo Classic Aspire Gymnastics Academy 7B 3 Jr 9.125 11 9.050 8 9.000 11T 9.300 5T 36.475 7
2017-12-15 2017 Aspire Classic Aspire Gymnastics Academy 11A 3 Younger 9.425 7 8.075 18T 9.025 6 9.300 8T 35.825 9
2017-12-08 St. Nick Invite Aspire Gymnastics Academy 6A 3 JrB 9.600 1 9.175 4T 9.175 2 9.275 3 37.225 1T
2017-11-16 Paul Hamm Thanksgiving Classic - Women Aspire Gymnastics Academy 5 3 Younger 9.375 5T 9.000 9T 9.325 1 9.050 9T 36.750 4
2017-03-30 2017 Illinois Level 3 & 5 State Aspire Gymnastics Academy All 3 Ch C 9.125 19T 8.450 27 8.600 21T 8.575 26 34.750 27
2017-02-24 Kinetic Classic Aspire Gymnastics Academy 4,5,6,7 3 All Ages 8.975 78T 7.600 109 8.100 102 8.825 68T 33.500 104
2017-02-18 2017 Great Western Invitational Women's Aspire Gymnastics Academy 1 3 Filly 8.850 14 8.650 12 8.575 12 8.850 15 34.925 13
2017-01-27 2017 UGA Invitational Aspire Gymnastics Academy B7 3 Jr A 8.450 12 8.050 13 8.550 9 8.750 8T 33.800 10
2017-01-20 2017 Bravo Classic Aspire Gymnastics Academy 11B 3 6-7yrs 8.900 8 8.450 12 8.075 15 8.150 12 33.575 13
2016-12-16 2016 Aspire Classic Aspire Gymnastics Academy 12 3 Younger 8.450 19 8.175 19 8.125 13T 8.450 17 33.200 18
2016-12-09 St. Nick Invite Aspire Gymnastics Academy 5 3 All 8.775 72T 7.350 87 7.900 87 8.700 53T 32.725 79
2016-11-19 Paul Hamm Thanksgiving Classic - 2016 Girls Aspire Gymnastics Academy 5 3 6-7 yrs 8.400 9 7.100 18 7.350 17 8.150 11 31.000 13
Get your scores on
a t-shirt, pin, or hoodie

www.lazysuits.com